sensor_id;sensor_type;location;lat;lon;timestamp;temperature;humidity
13409;DHT22;6775;49.574;11.170;2022-08-19T00:01:51;20.70;99.90
13409;DHT22;6775;49.574;11.170;2022-08-19T00:04:21;20.70;99.90
13409;DHT22;6775;49.574;11.170;2022-08-19T00:06:50;20.70;99.90
13409;DHT22;6775;49.574;11.170;2022-08-19T00:09:20;20.70;99.90
13409;DHT22;6775;49.574;11.170;2022-08-19T00:11:50;20.70;99.90
13409;DHT22;6775;49.574;11.170;2022-08-19T00:14:19;20.70;99.90
13409;DHT22;6775;49.574;11.170;2022-08-19T00:16:48;20.60;99.90
13409;DHT22;6775;49.574;11.170;2022-08-19T00:19:18;20.60;99.90
13409;DHT22;6775;49.574;11.170;2022-08-19T00:21:46;20.60;99.90
13409;DHT22;6775;49.574;11.170;2022-08-19T00:24:15;20.60;99.90
13409;DHT22;6775;49.574;11.170;2022-08-19T00:26:43;20.60;99.90
13409;DHT22;6775;49.574;11.170;2022-08-19T00:29:14;20.60;99.90
13409;DHT22;6775;49.574;11.170;2022-08-19T00:31:42;20.60;99.90
13409;DHT22;6775;49.574;11.170;2022-08-19T00:34:12;20.60;99.90
13409;DHT22;6775;49.574;11.170;2022-08-19T00:36:40;20.60;99.90
13409;DHT22;6775;49.574;11.170;2022-08-19T00:39:09;20.60;99.90
13409;DHT22;6775;49.574;11.170;2022-08-19T00:41:40;20.60;99.90
13409;DHT22;6775;49.574;11.170;2022-08-19T00:44:11;20.60;99.90
13409;DHT22;6775;49.574;11.170;2022-08-19T00:46:42;20.60;99.90
13409;DHT22;6775;49.574;11.170;2022-08-19T00:49:24;20.60;99.90
13409;DHT22;6775;49.574;11.170;2022-08-19T00:51:57;20.60;99.90
13409;DHT22;6775;49.574;11.170;2022-08-19T00:54:26;20.60;99.90
13409;DHT22;6775;49.574;11.170;2022-08-19T00:56:57;20.50;99.90
13409;DHT22;6775;49.574;11.170;2022-08-19T00:59:27;20.60;99.90
13409;DHT22;6775;49.574;11.170;2022-08-19T01:02:17;20.50;99.90
13409;DHT22;6775;49.574;11.170;2022-08-19T01:04:46;20.50;99.90
13409;DHT22;6775;49.574;11.170;2022-08-19T01:07:14;20.50;99.90
13409;DHT22;6775;49.574;11.170;2022-08-19T01:09:45;20.50;99.90
13409;DHT22;6775;49.574;11.170;2022-08-19T01:12:14;20.60;99.90
13409;DHT22;6775;49.574;11.170;2022-08-19T01:14:42;20.60;99.90
13409;DHT22;6775;49.574;11.170;2022-08-19T01:17:11;20.60;99.90
13409;DHT22;6775;49.574;11.170;2022-08-19T01:19:43;20.60;99.90
13409;DHT22;6775;49.574;11.170;2022-08-19T01:22:19;20.60;99.90
13409;DHT22;6775;49.574;11.170;2022-08-19T01:24:58;20.60;99.90
13409;DHT22;6775;49.574;11.170;2022-08-19T01:27:26;20.60;99.90
13409;DHT22;6775;49.574;11.170;2022-08-19T01:30:01;20.60;99.90
13409;DHT22;6775;49.574;11.170;2022-08-19T01:32:29;20.50;99.90
13409;DHT22;6775;49.574;11.170;2022-08-19T01:35:00;20.60;99.90
13409;DHT22;6775;49.574;11.170;2022-08-19T01:37:30;20.50;99.90
13409;DHT22;6775;49.574;11.170;2022-08-19T01:40:11;20.50;99.90
13409;DHT22;6775;49.574;11.170;2022-08-19T01:42:39;20.50;99.90
13409;DHT22;6775;49.574;11.170;2022-08-19T01:48:56;20.50;99.90
13409;DHT22;6775;49.574;11.170;2022-08-19T01:51:24;20.50;99.90
13409;DHT22;6775;49.574;11.170;2022-08-19T01:53:54;20.50;99.90
13409;DHT22;6775;49.574;11.170;2022-08-19T01:56:23;20.50;99.90
13409;DHT22;6775;49.574;11.170;2022-08-19T01:58:54;20.50;99.90
13409;DHT22;6775;49.574;11.170;2022-08-19T02:01:23;20.50;99.90
13409;DHT22;6775;49.574;11.170;2022-08-19T02:03:57;20.50;99.90
13409;DHT22;6775;49.574;11.170;2022-08-19T02:06:24;20.50;99.90
13409;DHT22;6775;49.574;11.170;2022-08-19T02:08:52;20.40;99.90
13409;DHT22;6775;49.574;11.170;2022-08-19T02:11:27;20.40;99.90
13409;DHT22;6775;49.574;11.170;2022-08-19T02:13:56;20.50;99.90
13409;DHT22;6775;49.574;11.170;2022-08-19T02:16:25;20.40;99.90
13409;DHT22;6775;49.574;11.170;2022-08-19T02:18:53;20.50;99.90
13409;DHT22;6775;49.574;11.170;2022-08-19T02:21:22;20.40;99.90
13409;DHT22;6775;49.574;11.170;2022-08-19T02:23:51;20.40;99.90
13409;DHT22;6775;49.574;11.170;2022-08-19T02:26:19;20.40;99.90
13409;DHT22;6775;49.574;11.170;2022-08-19T02:28:48;20.40;99.90
13409;DHT22;6775;49.574;11.170;2022-08-19T02:31:19;20.40;99.90
13409;DHT22;6775;49.574;11.170;2022-08-19T02:33:51;20.50;99.90
13409;DHT22;6775;49.574;11.170;2022-08-19T02:36:23;20.40;99.90
13409;DHT22;6775;49.574;11.170;2022-08-19T02:38:52;20.40;99.90
13409;DHT22;6775;49.574;11.170;2022-08-19T02:41:23;20.30;99.90
13409;DHT22;6775;49.574;11.170;2022-08-19T02:43:54;20.40;99.90
13409;DHT22;6775;49.574;11.170;2022-08-19T02:46:44;20.40;99.90
13409;DHT22;6775;49.574;11.170;2022-08-19T02:49:13;20.30;99.90
13409;DHT22;6775;49.574;11.170;2022-08-19T02:51:44;20.40;99.90
13409;DHT22;6775;49.574;11.170;2022-08-19T02:54:13;20.40;99.90
13409;DHT22;6775;49.574;11.170;2022-08-19T02:56:42;20.40;99.90
13409;DHT22;6775;49.574;11.170;2022-08-19T02:59:12;20.30;99.90
13409;DHT22;6775;49.574;11.170;2022-08-19T03:01:41;20.30;99.90
13409;DHT22;6775;49.574;11.170;2022-08-19T03:04:11;20.30;99.90
13409;DHT22;6775;49.574;11.170;2022-08-19T03:06:41;20.30;99.90
13409;DHT22;6775;49.574;11.170;2022-08-19T03:09:10;20.30;99.90
13409;DHT22;6775;49.574;11.170;2022-08-19T03:11:38;20.30;99.90
13409;DHT22;6775;49.574;11.170;2022-08-19T03:14:07;20.20;99.90
13409;DHT22;6775;49.574;11.170;2022-08-19T03:16:48;20.30;99.90
13409;DHT22;6775;49.574;11.170;2022-08-19T03:19:18;20.30;99.90
13409;DHT22;6775;49.574;11.170;2022-08-19T03:21:47;20.30;99.90
13409;DHT22;6775;49.574;11.170;2022-08-19T03:24:16;20.30;99.90
13409;DHT22;6775;49.574;11.170;2022-08-19T03:26:47;20.30;99.90
13409;DHT22;6775;49.574;11.170;2022-08-19T03:29:17;20.30;99.90
13409;DHT22;6775;49.574;11.170;2022-08-19T03:31:58;20.30;99.90
13409;DHT22;6775;49.574;11.170;2022-08-19T03:34:29;20.30;99.90
13409;DHT22;6775;49.574;11.170;2022-08-19T03:37:01;20.30;99.90
13409;DHT22;6775;49.574;11.170;2022-08-19T03:39:30;20.20;99.90
13409;DHT22;6775;49.574;11.170;2022-08-19T03:41:58;20.30;99.90
13409;DHT22;6775;49.574;11.170;2022-08-19T03:44:47;20.30;99.90
13409;DHT22;6775;49.574;11.170;2022-08-19T03:47:17;20.30;99.90
13409;DHT22;6775;49.574;11.170;2022-08-19T03:49:44;20.30;99.90
13409;DHT22;6775;49.574;11.170;2022-08-19T03:52:12;20.30;99.90
13409;DHT22;6775;49.574;11.170;2022-08-19T03:54:41;20.30;99.90
13409;DHT22;6775;49.574;11.170;2022-08-19T03:57:09;20.30;99.90
13409;DHT22;6775;49.574;11.170;2022-08-19T03:59:38;20.30;99.90
13409;DHT22;6775;49.574;11.170;2022-08-19T04:02:08;20.30;99.90
13409;DHT22;6775;49.574;11.170;2022-08-19T04:04:39;20.30;99.90
13409;DHT22;6775;49.574;11.170;2022-08-19T04:07:08;20.30;99.90
13409;DHT22;6775;49.574;11.170;2022-08-19T04:09:37;20.30;99.90
13409;DHT22;6775;49.574;11.170;2022-08-19T04:12:05;20.30;99.90
13409;DHT22;6775;49.574;11.170;2022-08-19T04:14:34;20.30;99.90
13409;DHT22;6775;49.574;11.170;2022-08-19T04:17:03;20.30;99.90
13409;DHT22;6775;49.574;11.170;2022-08-19T04:19:32;20.30;99.90
13409;DHT22;6775;49.574;11.170;2022-08-19T04:22:02;20.30;99.90
13409;DHT22;6775;49.574;11.170;2022-08-19T04:24:31;20.30;99.90
13409;DHT22;6775;49.574;11.170;2022-08-19T04:26:59;20.30;99.90
13409;DHT22;6775;49.574;11.170;2022-08-19T04:29:29;20.30;99.90
13409;DHT22;6775;49.574;11.170;2022-08-19T04:31:58;20.30;99.90
13409;DHT22;6775;49.574;11.170;2022-08-19T04:34:35;20.30;99.90
13409;DHT22;6775;49.574;11.170;2022-08-19T04:37:25;20.30;99.90
13409;DHT22;6775;49.574;11.170;2022-08-19T04:40:02;20.30;99.90
13409;DHT22;6775;49.574;11.170;2022-08-19T04:42:48;20.30;99.90
13409;DHT22;6775;49.574;11.170;2022-08-19T04:45:16;20.20;99.90
13409;DHT22;6775;49.574;11.170;2022-08-19T04:47:44;20.30;99.90
13409;DHT22;6775;49.574;11.170;2022-08-19T04:50:18;20.30;99.90
13409;DHT22;6775;49.574;11.170;2022-08-19T04:52:50;20.30;99.90
13409;DHT22;6775;49.574;11.170;2022-08-19T04:55:18;20.30;99.90
13409;DHT22;6775;49.574;11.170;2022-08-19T04:57:46;20.30;99.90
13409;DHT22;6775;49.574;11.170;2022-08-19T05:00:14;20.30;99.90
13409;DHT22;6775;49.574;11.170;2022-08-19T05:02:42;20.30;99.90
13409;DHT22;6775;49.574;11.170;2022-08-19T05:05:10;20.30;99.90
13409;DHT22;6775;49.574;11.170;2022-08-19T05:07:38;20.30;99.90
13409;DHT22;6775;49.574;11.170;2022-08-19T05:10:09;20.30;99.90
13409;DHT22;6775;49.574;11.170;2022-08-19T05:12:38;20.20;99.90
13409;DHT22;6775;49.574;11.170;2022-08-19T05:15:06;20.20;99.90
13409;DHT22;6775;49.574;11.170;2022-08-19T05:17:35;20.20;99.90
13409;DHT22;6775;49.574;11.170;2022-08-19T05:20:06;20.20;99.90
13409;DHT22;6775;49.574;11.170;2022-08-19T05:22:52;20.20;99.90
13409;DHT22;6775;49.574;11.170;2022-08-19T05:25:22;20.30;99.90
13409;DHT22;6775;49.574;11.170;2022-08-19T05:27:51;20.20;99.90
13409;DHT22;6775;49.574;11.170;2022-08-19T05:30:19;20.30;99.90
13409;DHT22;6775;49.574;11.170;2022-08-19T05:33:07;20.30;99.90
13409;DHT22;6775;49.574;11.170;2022-08-19T05:35:36;20.30;99.90
13409;DHT22;6775;49.574;11.170;2022-08-19T05:38:04;20.30;99.90
13409;DHT22;6775;49.574;11.170;2022-08-19T05:40:35;20.40;99.90
13409;DHT22;6775;49.574;11.170;2022-08-19T05:43:04;20.40;99.90
13409;DHT22;6775;49.574;11.170;2022-08-19T05:45:32;20.40;99.90
13409;DHT22;6775;49.574;11.170;2022-08-19T05:48:05;20.60;99.90
13409;DHT22;6775;49.574;11.170;2022-08-19T05:50:35;20.60;99.90
13409;DHT22;6775;49.574;11.170;2022-08-19T05:53:03;20.60;99.90
13409;DHT22;6775;49.574;11.170;2022-08-19T05:55:30;20.70;99.90
13409;DHT22;6775;49.574;11.170;2022-08-19T05:58:00;20.80;99.90
13409;DHT22;6775;49.574;11.170;2022-08-19T06:00:28;20.90;99.90
13409;DHT22;6775;49.574;11.170;2022-08-19T06:02:57;20.90;99.90
13409;DHT22;6775;49.574;11.170;2022-08-19T06:05:35;21.00;99.90
13409;DHT22;6775;49.574;11.170;2022-08-19T06:08:18;21.00;99.90
13409;DHT22;6775;49.574;11.170;2022-08-19T06:11:12;21.10;99.90
13409;DHT22;6775;49.574;11.170;2022-08-19T06:13:42;21.10;99.90
13409;DHT22;6775;49.574;11.170;2022-08-19T06:16:09;21.10;99.90
13409;DHT22;6775;49.574;11.170;2022-08-19T06:18:37;21.10;99.90
13409;DHT22;6775;49.574;11.170;2022-08-19T06:21:05;21.20;99.90
13409;DHT22;6775;49.574;11.170;2022-08-19T06:23:33;21.20;99.90
13409;DHT22;6775;49.574;11.170;2022-08-19T06:26:01;21.10;99.90
13409;DHT22;6775;49.574;11.170;2022-08-19T06:28:29;21.10;99.90
13409;DHT22;6775;49.574;11.170;2022-08-19T06:30:58;21.10;99.90
13409;DHT22;6775;49.574;11.170;2022-08-19T06:33:26;21.10;99.90
13409;DHT22;6775;49.574;11.170;2022-08-19T06:35:56;21.20;99.90
13409;DHT22;6775;49.574;11.170;2022-08-19T06:38:23;21.20;99.90
13409;DHT22;6775;49.574;11.170;2022-08-19T06:41:00;21.20;99.90
13409;DHT22;6775;49.574;11.170;2022-08-19T06:43:33;21.30;99.90
13409;DHT22;6775;49.574;11.170;2022-08-19T06:46:11;21.30;99.90
13409;DHT22;6775;49.574;11.170;2022-08-19T06:48:41;21.30;99.90
13409;DHT22;6775;49.574;11.170;2022-08-19T06:51:12;21.30;99.90
13409;DHT22;6775;49.574;11.170;2022-08-19T06:53:45;21.30;99.90
13409;DHT22;6775;49.574;11.170;2022-08-19T06:56:14;21.30;99.90
13409;DHT22;6775;49.574;11.170;2022-08-19T06:58:42;21.30;99.90
13409;DHT22;6775;49.574;11.170;2022-08-19T07:01:11;21.30;99.90
13409;DHT22;6775;49.574;11.170;2022-08-19T07:03:39;21.30;99.90
13409;DHT22;6775;49.574;11.170;2022-08-19T07:06:09;21.30;99.90
13409;DHT22;6775;49.574;11.170;2022-08-19T07:08:58;21.30;99.90
13409;DHT22;6775;49.574;11.170;2022-08-19T07:11:26;21.10;99.90
13409;DHT22;6775;49.574;11.170;2022-08-19T07:13:55;21.20;99.90
13409;DHT22;6775;49.574;11.170;2022-08-19T07:16:24;21.20;99.90
13409;DHT22;6775;49.574;11.170;2022-08-19T07:18:55;21.20;99.90
13409;DHT22;6775;49.574;11.170;2022-08-19T07:21:25;21.20;99.90
13409;DHT22;6775;49.574;11.170;2022-08-19T07:23:55;21.30;99.90
13409;DHT22;6775;49.574;11.170;2022-08-19T07:26:25;21.20;99.90
13409;DHT22;6775;49.574;11.170;2022-08-19T07:28:55;21.30;99.90
13409;DHT22;6775;49.574;11.170;2022-08-19T07:31:27;21.30;99.90
13409;DHT22;6775;49.574;11.170;2022-08-19T07:33:56;21.30;99.90
13409;DHT22;6775;49.574;11.170;2022-08-19T07:36:27;21.30;99.90
13409;DHT22;6775;49.574;11.170;2022-08-19T07:39:00;21.30;99.90
13409;DHT22;6775;49.574;11.170;2022-08-19T07:41:28;21.30;99.90
13409;DHT22;6775;49.574;11.170;2022-08-19T07:43:58;21.30;99.90
13409;DHT22;6775;49.574;11.170;2022-08-19T07:46:31;21.30;99.90
13409;DHT22;6775;49.574;11.170;2022-08-19T07:48:59;21.30;99.90
13409;DHT22;6775;49.574;11.170;2022-08-19T07:51:28;21.10;99.90
13409;DHT22;6775;49.574;11.170;2022-08-19T07:54:38;21.20;99.90
13409;DHT22;6775;49.574;11.170;2022-08-19T07:57:07;21.20;99.90
13409;DHT22;6775;49.574;11.170;2022-08-19T07:59:35;21.20;99.90
13409;DHT22;6775;49.574;11.170;2022-08-19T08:02:05;21.20;99.90
13409;DHT22;6775;49.574;11.170;2022-08-19T08:04:33;21.10;99.90
13409;DHT22;6775;49.574;11.170;2022-08-19T08:07:18;21.20;99.90
13409;DHT22;6775;49.574;11.170;2022-08-19T08:10:06;21.20;99.90
13409;DHT22;6775;49.574;11.170;2022-08-19T08:12:46;21.10;99.90
13409;DHT22;6775;49.574;11.170;2022-08-19T08:15:35;21.10;99.90
13409;DHT22;6775;49.574;11.170;2022-08-19T08:18:10;21.10;99.90
13409;DHT22;6775;49.574;11.170;2022-08-19T08:20:40;21.10;99.90
13409;DHT22;6775;49.574;11.170;2022-08-19T08:23:08;21.00;99.90
13409;DHT22;6775;49.574;11.170;2022-08-19T08:25:53;21.10;99.90
13409;DHT22;6775;49.574;11.170;2022-08-19T08:28:22;21.10;99.90
13409;DHT22;6775;49.574;11.170;2022-08-19T08:30:51;21.20;99.90
13409;DHT22;6775;49.574;11.170;2022-08-19T08:33:24;21.20;99.90
13409;DHT22;6775;49.574;11.170;2022-08-19T08:36:00;21.30;99.90
13409;DHT22;6775;49.574;11.170;2022-08-19T08:38:30;21.40;99.90
13409;DHT22;6775;49.574;11.170;2022-08-19T08:41:09;21.40;99.90
13409;DHT22;6775;49.574;11.170;2022-08-19T08:43:47;21.50;99.90
13409;DHT22;6775;49.574;11.170;2022-08-19T08:46:18;21.50;99.90
13409;DHT22;6775;49.574;11.170;2022-08-19T08:49:03;21.50;99.90
13409;DHT22;6775;49.574;11.170;2022-08-19T08:51:38;21.60;99.90
13409;DHT22;6775;49.574;11.170;2022-08-19T08:54:14;21.60;99.90
13409;DHT22;6775;49.574;11.170;2022-08-19T08:56:45;21.60;99.90
13409;DHT22;6775;49.574;11.170;2022-08-19T08:59:19;21.60;99.90
13409;DHT22;6775;49.574;11.170;2022-08-19T09:01:48;21.60;99.90
13409;DHT22;6775;49.574;11.170;2022-08-19T09:04:17;21.60;99.90
13409;DHT22;6775;49.574;11.170;2022-08-19T09:06:51;21.60;99.90
13409;DHT22;6775;49.574;11.170;2022-08-19T09:09:26;21.60;99.90
13409;DHT22;6775;49.574;11.170;2022-08-19T09:12:05;21.60;99.90
13409;DHT22;6775;49.574;11.170;2022-08-19T09:14:43;21.50;99.90
13409;DHT22;6775;49.574;11.170;2022-08-19T09:17:18;21.50;99.90
13409;DHT22;6775;49.574;11.170;2022-08-19T09:19:51;21.40;99.90
13409;DHT22;6775;49.574;11.170;2022-08-19T09:22:20;21.40;99.90
13409;DHT22;6775;49.574;11.170;2022-08-19T09:24:52;21.40;99.90
13409;DHT22;6775;49.574;11.170;2022-08-19T09:27:22;21.40;99.90
13409;DHT22;6775;49.574;11.170;2022-08-19T09:30:15;21.30;99.90
13409;DHT22;6775;49.574;11.170;2022-08-19T09:32:44;21.40;99.90
13409;DHT22;6775;49.574;11.170;2022-08-19T09:35:20;21.40;99.90
13409;DHT22;6775;49.574;11.170;2022-08-19T09:37:50;21.40;99.90
13409;DHT22;6775;49.574;11.170;2022-08-19T09:40:25;21.40;99.90
13409;DHT22;6775;49.574;11.170;2022-08-19T09:42:57;21.40;99.90
13409;DHT22;6775;49.574;11.170;2022-08-19T09:45:39;21.40;99.90
13409;DHT22;6775;49.574;11.170;2022-08-19T09:48:07;21.40;99.90
13409;DHT22;6775;49.574;11.170;2022-08-19T09:50:38;21.40;99.90
13409;DHT22;6775;49.574;11.170;2022-08-19T09:53:18;21.50;99.90
13409;DHT22;6775;49.574;11.170;2022-08-19T09:55:46;21.50;99.90
13409;DHT22;6775;49.574;11.170;2022-08-19T09:58:13;21.50;99.90
13409;DHT22;6775;49.574;11.170;2022-08-19T10:00:41;21.50;99.90
13409;DHT22;6775;49.574;11.170;2022-08-19T10:03:16;21.50;99.90
13409;DHT22;6775;49.574;11.170;2022-08-19T10:05:45;21.50;99.90
13409;DHT22;6775;49.574;11.170;2022-08-19T10:08:23;21.40;99.90
13409;DHT22;6775;49.574;11.170;2022-08-19T10:10:53;21.50;99.90
13409;DHT22;6775;49.574;11.170;2022-08-19T10:13:23;21.50;99.90
13409;DHT22;6775;49.574;11.170;2022-08-19T10:15:53;21.50;99.90
13409;DHT22;6775;49.574;11.170;2022-08-19T10:18:24;21.60;99.90
13409;DHT22;6775;49.574;11.170;2022-08-19T10:21:03;21.60;99.90
13409;DHT22;6775;49.574;11.170;2022-08-19T10:23:35;21.60;99.90
13409;DHT22;6775;49.574;11.170;2022-08-19T10:26:04;21.60;99.90
13409;DHT22;6775;49.574;11.170;2022-08-19T10:28:33;21.60;99.90
13409;DHT22;6775;49.574;11.170;2022-08-19T10:31:05;21.60;99.90
13409;DHT22;6775;49.574;11.170;2022-08-19T10:33:34;21.50;99.90
13409;DHT22;6775;49.574;11.170;2022-08-19T10:36:22;21.50;99.90
13409;DHT22;6775;49.574;11.170;2022-08-19T10:38:52;21.40;99.90
13409;DHT22;6775;49.574;11.170;2022-08-19T10:41:26;21.40;99.90
13409;DHT22;6775;49.574;11.170;2022-08-19T10:43:55;21.40;99.90
13409;DHT22;6775;49.574;11.170;2022-08-19T10:46:32;21.30;99.90
13409;DHT22;6775;49.574;11.170;2022-08-19T10:49:01;21.30;99.90
13409;DHT22;6775;49.574;11.170;2022-08-19T10:51:31;21.30;99.90
13409;DHT22;6775;49.574;11.170;2022-08-19T10:54:17;21.30;99.90
13409;DHT22;6775;49.574;11.170;2022-08-19T10:56:56;21.30;99.90
13409;DHT22;6775;49.574;11.170;2022-08-19T10:59:25;21.30;99.90
13409;DHT22;6775;49.574;11.170;2022-08-19T11:02:03;21.30;99.90
13409;DHT22;6775;49.574;11.170;2022-08-19T11:04:31;21.30;99.90
13409;DHT22;6775;49.574;11.170;2022-08-19T11:07:03;21.30;99.90
13409;DHT22;6775;49.574;11.170;2022-08-19T11:09:37;21.40;99.90
13409;DHT22;6775;49.574;11.170;2022-08-19T11:12:06;21.40;99.90
13409;DHT22;6775;49.574;11.170;2022-08-19T11:14:34;21.40;99.90
13409;DHT22;6775;49.574;11.170;2022-08-19T11:17:04;21.30;99.90
13409;DHT22;6775;49.574;11.170;2022-08-19T11:19:32;21.30;99.90
13409;DHT22;6775;49.574;11.170;2022-08-19T11:22:02;21.30;99.90
13409;DHT22;6775;49.574;11.170;2022-08-19T11:24:31;21.30;99.90
13409;DHT22;6775;49.574;11.170;2022-08-19T11:27:05;21.20;99.90
13409;DHT22;6775;49.574;11.170;2022-08-19T11:29:34;21.30;99.90
13409;DHT22;6775;49.574;11.170;2022-08-19T11:32:04;21.20;99.90
13409;DHT22;6775;49.574;11.170;2022-08-19T11:34:32;21.30;99.90
13409;DHT22;6775;49.574;11.170;2022-08-19T11:37:03;21.30;99.90
13409;DHT22;6775;49.574;11.170;2022-08-19T11:39:34;21.30;99.90
13409;DHT22;6775;49.574;11.170;2022-08-19T11:42:04;21.40;99.90
13409;DHT22;6775;49.574;11.170;2022-08-19T11:44:54;21.40;99.90
13409;DHT22;6775;49.574;11.170;2022-08-19T11:47:22;21.40;99.90
13409;DHT22;6775;49.574;11.170;2022-08-19T11:49:50;21.40;99.90
13409;DHT22;6775;49.574;11.170;2022-08-19T11:52:21;21.40;99.90
13409;DHT22;6775;49.574;11.170;2022-08-19T11:54:49;21.40;99.90
13409;DHT22;6775;49.574;11.170;2022-08-19T11:57:17;21.40;99.90
13409;DHT22;6775;49.574;11.170;2022-08-19T11:59:49;21.40;99.90
13409;DHT22;6775;49.574;11.170;2022-08-19T12:02:18;21.50;99.90
13409;DHT22;6775;49.574;11.170;2022-08-19T12:04:46;21.50;99.90
13409;DHT22;6775;49.574;11.170;2022-08-19T12:07:14;21.50;99.90
13409;DHT22;6775;49.574;11.170;2022-08-19T12:09:44;21.50;99.90
13409;DHT22;6775;49.574;11.170;2022-08-19T12:12:14;21.50;99.90
13409;DHT22;6775;49.574;11.170;2022-08-19T12:14:42;21.60;99.90
13409;DHT22;6775;49.574;11.170;2022-08-19T12:17:11;21.60;99.90
13409;DHT22;6775;49.574;11.170;2022-08-19T12:19:39;21.60;99.90
13409;DHT22;6775;49.574;11.170;2022-08-19T12:22:07;21.60;99.90
13409;DHT22;6775;49.574;11.170;2022-08-19T12:24:35;21.60;99.90
13409;DHT22;6775;49.574;11.170;2022-08-19T12:27:04;21.50;99.90
13409;DHT22;6775;49.574;11.170;2022-08-19T12:29:38;21.60;99.90
13409;DHT22;6775;49.574;11.170;2022-08-19T12:32:06;21.50;99.90
13409;DHT22;6775;49.574;11.170;2022-08-19T12:34:37;21.50;99.90
13409;DHT22;6775;49.574;11.170;2022-08-19T12:37:05;21.50;99.90
13409;DHT22;6775;49.574;11.170;2022-08-19T12:39:35;21.50;99.90
13409;DHT22;6775;49.574;11.170;2022-08-19T12:42:05;21.50;99.90
13409;DHT22;6775;49.574;11.170;2022-08-19T12:44:34;21.40;99.90
13409;DHT22;6775;49.574;11.170;2022-08-19T12:47:02;21.40;99.90
13409;DHT22;6775;49.574;11.170;2022-08-19T12:49:33;21.40;99.90
13409;DHT22;6775;49.574;11.170;2022-08-19T12:52:20;21.40;99.90
13409;DHT22;6775;49.574;11.170;2022-08-19T12:54:50;21.50;99.90
13409;DHT22;6775;49.574;11.170;2022-08-19T12:57:22;21.50;99.90
13409;DHT22;6775;49.574;11.170;2022-08-19T12:59:59;21.60;99.90
13409;DHT22;6775;49.574;11.170;2022-08-19T13:02:30;21.60;99.90
13409;DHT22;6775;49.574;11.170;2022-08-19T13:05:05;21.60;99.90
13409;DHT22;6775;49.574;11.170;2022-08-19T13:07:34;21.60;99.90
13409;DHT22;6775;49.574;11.170;2022-08-19T13:10:04;21.60;99.90
13409;DHT22;6775;49.574;11.170;2022-08-19T13:12:33;21.50;99.90
13409;DHT22;6775;49.574;11.170;2022-08-19T13:15:01;21.50;99.90
13409;DHT22;6775;49.574;11.170;2022-08-19T13:17:37;21.50;99.90
13409;DHT22;6775;49.574;11.170;2022-08-19T13:20:06;21.50;99.90
13409;DHT22;6775;49.574;11.170;2022-08-19T13:22:35;21.40;99.90
13409;DHT22;6775;49.574;11.170;2022-08-19T13:25:04;21.40;99.90
13409;DHT22;6775;49.574;11.170;2022-08-19T13:27:33;21.40;99.90
13409;DHT22;6775;49.574;11.170;2022-08-19T13:30:03;21.40;99.90
13409;DHT22;6775;49.574;11.170;2022-08-19T13:32:45;21.40;99.90
13409;DHT22;6775;49.574;11.170;2022-08-19T13:35:30;21.40;99.90
13409;DHT22;6775;49.574;11.170;2022-08-19T13:37:58;21.30;99.90
13409;DHT22;6775;49.574;11.170;2022-08-19T13:40:27;21.30;99.90
13409;DHT22;6775;49.574;11.170;2022-08-19T13:42:57;21.30;99.90
13409;DHT22;6775;49.574;11.170;2022-08-19T13:45:27;21.40;99.90
13409;DHT22;6775;49.574;11.170;2022-08-19T13:47:56;21.30;99.90
13409;DHT22;6775;49.574;11.170;2022-08-19T13:50:27;21.20;99.90
13409;DHT22;6775;49.574;11.170;2022-08-19T13:52:58;21.10;99.90
13409;DHT22;6775;49.574;11.170;2022-08-19T13:55:26;21.00;99.90
13409;DHT22;6775;49.574;11.170;2022-08-19T13:57:55;21.00;99.90
13409;DHT22;6775;49.574;11.170;2022-08-19T14:00:27;20.90;99.90
13409;DHT22;6775;49.574;11.170;2022-08-19T14:02:56;20.80;99.90
13409;DHT22;6775;49.574;11.170;2022-08-19T14:05:26;20.80;99.90
13409;DHT22;6775;49.574;11.170;2022-08-19T14:07:56;20.60;99.90
13409;DHT22;6775;49.574;11.170;2022-08-19T14:10:31;20.70;99.90
13409;DHT22;6775;49.574;11.170;2022-08-19T14:13:02;20.60;99.90
13409;DHT22;6775;49.574;11.170;2022-08-19T14:15:31;20.60;99.90
13409;DHT22;6775;49.574;11.170;2022-08-19T14:17:59;20.60;99.90
13409;DHT22;6775;49.574;11.170;2022-08-19T14:20:27;20.50;99.90
13409;DHT22;6775;49.574;11.170;2022-08-19T14:22:55;20.50;99.90
13409;DHT22;6775;49.574;11.170;2022-08-19T14:25:25;20.50;99.90
13409;DHT22;6775;49.574;11.170;2022-08-19T14:27:54;20.50;99.90
13409;DHT22;6775;49.574;11.170;2022-08-19T14:30:24;20.50;99.90
13409;DHT22;6775;49.574;11.170;2022-08-19T14:32:56;20.50;99.90
13409;DHT22;6775;49.574;11.170;2022-08-19T14:35:25;20.60;99.90
13409;DHT22;6775;49.574;11.170;2022-08-19T14:37:54;20.60;99.90
13409;DHT22;6775;49.574;11.170;2022-08-19T14:40:28;20.60;99.90
13409;DHT22;6775;49.574;11.170;2022-08-19T14:42:59;20.60;99.90
13409;DHT22;6775;49.574;11.170;2022-08-19T14:45:33;20.60;99.90
13409;DHT22;6775;49.574;11.170;2022-08-19T14:48:04;20.60;99.90
13409;DHT22;6775;49.574;11.170;2022-08-19T14:50:32;20.60;99.90
13409;DHT22;6775;49.574;11.170;2022-08-19T14:53:03;20.70;99.90
13409;DHT22;6775;49.574;11.170;2022-08-19T14:55:41;20.60;99.90
13409;DHT22;6775;49.574;11.170;2022-08-19T14:58:09;20.60;99.90
13409;DHT22;6775;49.574;11.170;2022-08-19T15:00:57;20.70;99.90
13409;DHT22;6775;49.574;11.170;2022-08-19T15:03:27;20.60;99.90
13409;DHT22;6775;49.574;11.170;2022-08-19T15:05:56;20.60;99.90
13409;DHT22;6775;49.574;11.170;2022-08-19T15:08:24;20.50;99.90
13409;DHT22;6775;49.574;11.170;2022-08-19T15:10:53;20.50;99.90
13409;DHT22;6775;49.574;11.170;2022-08-19T15:13:21;20.50;99.90
13409;DHT22;6775;49.574;11.170;2022-08-19T15:15:51;20.50;99.90
13409;DHT22;6775;49.574;11.170;2022-08-19T15:18:19;20.40;99.90
13409;DHT22;6775;49.574;11.170;2022-08-19T15:20:50;20.40;99.90
13409;DHT22;6775;49.574;11.170;2022-08-19T15:23:19;20.40;99.90
13409;DHT22;6775;49.574;11.170;2022-08-19T15:25:47;20.30;99.90
13409;DHT22;6775;49.574;11.170;2022-08-19T15:28:15;20.30;99.90
13409;DHT22;6775;49.574;11.170;2022-08-19T15:30:43;20.30;99.90
13409;DHT22;6775;49.574;11.170;2022-08-19T15:33:12;20.30;99.90
13409;DHT22;6775;49.574;11.170;2022-08-19T15:35:42;20.30;99.90
13409;DHT22;6775;49.574;11.170;2022-08-19T15:38:11;20.30;99.90
13409;DHT22;6775;49.574;11.170;2022-08-19T15:40:41;20.20;99.90
13409;DHT22;6775;49.574;11.170;2022-08-19T15:43:09;20.20;99.90
13409;DHT22;6775;49.574;11.170;2022-08-19T15:45:37;20.20;99.90
13409;DHT22;6775;49.574;11.170;2022-08-19T15:48:05;20.20;99.90
13409;DHT22;6775;49.574;11.170;2022-08-19T15:50:33;20.10;99.90
13409;DHT22;6775;49.574;11.170;2022-08-19T15:53:04;20.10;99.90
13409;DHT22;6775;49.574;11.170;2022-08-19T15:55:40;20.10;99.90
13409;DHT22;6775;49.574;11.170;2022-08-19T15:58:10;20.10;99.90
13409;DHT22;6775;49.574;11.170;2022-08-19T16:00:56;20.10;99.90